sensor_id;sensor_type;location;lat;lon;timestamp;pressure;altitude;pressure_sealevel;temperature;humidity
25232;BME280;13176;51.140;6.290;2022-09-01T00:01:40;101231.03;;;23.42;43.38
25232;BME280;13176;51.140;6.290;2022-09-01T00:04:14;101216.09;;;23.24;43.72
25232;BME280;13176;51.140;6.290;2022-09-01T00:06:42;101203.88;;;23.20;43.56
25232;BME280;13176;51.140;6.290;2022-09-01T00:09:12;101187.13;;;23.03;43.61
25232;BME280;13176;51.140;6.290;2022-09-01T00:11:42;101230.28;;;23.25;43.40
25232;BME280;13176;51.140;6.290;2022-09-01T00:14:16;101174.69;;;22.88;44.33
25232;BME280;13176;51.140;6.290;2022-09-01T00:16:58;101214.53;;;23.05;43.25
25232;BME280;13176;51.140;6.290;2022-09-01T00:19:25;101289.72;;;23.56;42.92
25232;BME280;13176;51.140;6.290;2022-09-01T00:21:52;101200.09;;;22.94;43.35
25232;BME280;13176;51.140;6.290;2022-09-01T00:24:18;101165.84;;;22.72;44.22
25232;BME280;13176;51.140;6.290;2022-09-01T00:26:45;101203.03;;;22.89;43.83
25232;BME280;13176;51.140;6.290;2022-09-01T00:29:11;101198.56;;;22.74;44.21
25232;BME280;13176;51.140;6.290;2022-09-01T00:31:38;101190.13;;;22.66;43.56
25232;BME280;13176;51.140;6.290;2022-09-01T00:34:05;101221.06;;;22.84;44.51
25232;BME280;13176;51.140;6.290;2022-09-01T00:36:31;101184.81;;;22.66;44.09
25232;BME280;13176;51.140;6.290;2022-09-01T00:41:27;101231.88;;;22.81;44.87
25232;BME280;13176;51.140;6.290;2022-09-01T00:44:00;101169.53;;;22.54;44.54
25232;BME280;13176;51.140;6.290;2022-09-01T00:46:32;101233.59;;;22.82;44.46
25232;BME280;13176;51.140;6.290;2022-09-01T00:49:10;101290.44;;;23.29;44.39
25232;BME280;13176;51.140;6.290;2022-09-01T00:51:38;101178.63;;;22.50;44.76
25232;BME280;13176;51.140;6.290;2022-09-01T00:54:08;101196.16;;;22.54;45.34
25232;BME280;13176;51.140;6.290;2022-09-01T00:56:38;101156.22;;;22.22;44.84
25232;BME280;13176;51.140;6.290;2022-09-01T00:59:12;101174.59;;;22.26;45.04
25232;BME280;13176;51.140;6.290;2022-09-01T01:01:40;101189.28;;;22.33;45.00
25232;BME280;13176;51.140;6.290;2022-09-01T01:04:07;101195.53;;;22.32;45.29
25232;BME280;13176;51.140;6.290;2022-09-01T01:06:44;101174.75;;;22.23;44.81
25232;BME280;13176;51.140;6.290;2022-09-01T01:09:17;101213.38;;;22.47;44.83
25232;BME280;13176;51.140;6.290;2022-09-01T01:11:45;101205.06;;;22.53;44.87
25232;BME280;13176;51.140;6.290;2022-09-01T01:14:14;101206.78;;;22.54;45.60
25232;BME280;13176;51.140;6.290;2022-09-01T01:16:44;101214.16;;;22.49;46.13
25232;BME280;13176;51.140;6.290;2022-09-01T01:19:31;101236.91;;;22.55;45.09
25232;BME280;13176;51.140;6.290;2022-09-01T01:22:28;101218.44;;;22.52;45.47
25232;BME280;13176;51.140;6.290;2022-09-01T01:25:17;101180.47;;;22.33;45.52
25232;BME280;13176;51.140;6.290;2022-09-01T01:27:44;101172.66;;;22.30;46.18
25232;BME280;13176;51.140;6.290;2022-09-01T01:30:11;101200.75;;;22.35;46.17
25232;BME280;13176;51.140;6.290;2022-09-01T01:32:38;101192.44;;;22.24;46.74
25232;BME280;13176;51.140;6.290;2022-09-01T01:35:09;101196.91;;;22.24;46.14
25232;BME280;13176;51.140;6.290;2022-09-01T01:37:44;101264.22;;;22.58;46.63
25232;BME280;13176;51.140;6.290;2022-09-01T01:40:15;101219.81;;;22.26;45.91
25232;BME280;13176;51.140;6.290;2022-09-01T01:42:44;101192.56;;;22.06;46.59
25232;BME280;13176;51.140;6.290;2022-09-01T01:45:12;101283.88;;;22.56;45.97
25232;BME280;13176;51.140;6.290;2022-09-01T01:47:47;101197.03;;;22.05;47.04
25232;BME280;13176;51.140;6.290;2022-09-01T01:50:36;101174.97;;;21.87;46.89
25232;BME280;13176;51.140;6.290;2022-09-01T01:53:07;101204.13;;;22.05;46.80
25232;BME280;13176;51.140;6.290;2022-09-01T01:55:37;101191.13;;;21.84;47.28
25232;BME280;13176;51.140;6.290;2022-09-01T01:58:04;101201.09;;;21.95;47.92
25232;BME280;13176;51.140;6.290;2022-09-01T02:00:31;101290.22;;;22.53;47.24
25232;BME280;13176;51.140;6.290;2022-09-01T02:03:00;101220.19;;;22.03;47.01
25232;BME280;13176;51.140;6.290;2022-09-01T02:05:30;101270.38;;;22.43;46.77
25232;BME280;13176;51.140;6.290;2022-09-01T02:08:04;101215.31;;;22.11;46.57
25232;BME280;13176;51.140;6.290;2022-09-01T02:10:34;101261.97;;;22.34;46.59
25232;BME280;13176;51.140;6.290;2022-09-01T02:13:04;101290.38;;;22.50;47.55
25232;BME280;13176;51.140;6.290;2022-09-01T02:15:34;101196.34;;;21.85;47.71
25232;BME280;13176;51.140;6.290;2022-09-01T02:18:31;101202.44;;;21.87;48.08
25232;BME280;13176;51.140;6.290;2022-09-01T02:20:56;101181.44;;;21.66;47.60
25232;BME280;13176;51.140;6.290;2022-09-01T02:23:24;101201.97;;;21.79;47.34
25232;BME280;13176;51.140;6.290;2022-09-01T02:25:53;101298.22;;;22.36;47.64
25232;BME280;13176;51.140;6.290;2022-09-01T02:28:41;101240.19;;;21.93;47.54
25232;BME280;13176;51.140;6.290;2022-09-01T02:31:09;101205.56;;;21.78;47.52
25232;BME280;13176;51.140;6.290;2022-09-01T02:33:38;101266.63;;;21.96;48.26
25232;BME280;13176;51.140;6.290;2022-09-01T02:36:11;101215.44;;;21.58;49.11
25232;BME280;13176;51.140;6.290;2022-09-01T02:38:40;101171.69;;;21.31;49.07
25232;BME280;13176;51.140;6.290;2022-09-01T02:41:11;101198.00;;;21.35;49.08
25232;BME280;13176;51.140;6.290;2022-09-01T02:43:40;101170.72;;;21.15;48.77
25232;BME280;13176;51.140;6.290;2022-09-01T02:46:08;101220.19;;;21.34;48.87
25232;BME280;13176;51.140;6.290;2022-09-01T02:48:37;101213.44;;;21.10;49.70
25232;BME280;13176;51.140;6.290;2022-09-01T02:51:11;101290.63;;;21.43;50.93
25232;BME280;13176;51.140;6.290;2022-09-01T02:53:40;101216.75;;;20.97;50.93
25232;BME280;13176;51.140;6.290;2022-09-01T02:56:09;101182.13;;;20.63;51.80
25232;BME280;13176;51.140;6.290;2022-09-01T02:58:41;101284.94;;;21.32;52.16
25232;BME280;13176;51.140;6.290;2022-09-01T03:01:27;101170.44;;;20.67;51.43
25232;BME280;13176;51.140;6.290;2022-09-01T03:03:58;101261.56;;;21.21;50.60
25232;BME280;13176;51.140;6.290;2022-09-01T03:06:25;101229.88;;;21.00;51.07
25232;BME280;13176;51.140;6.290;2022-09-01T03:08:55;101202.19;;;20.87;50.53
25232;BME280;13176;51.140;6.290;2022-09-01T03:11:27;101294.06;;;21.45;51.01
25232;BME280;13176;51.140;6.290;2022-09-01T03:13:54;101200.47;;;20.86;50.50
25232;BME280;13176;51.140;6.290;2022-09-01T03:16:21;101205.78;;;20.86;50.62
25232;BME280;13176;51.140;6.290;2022-09-01T03:18:48;101286.88;;;21.47;50.01
25232;BME280;13176;51.140;6.290;2022-09-01T03:21:15;101252.19;;;21.14;50.34
25232;BME280;13176;51.140;6.290;2022-09-01T03:23:44;101214.59;;;21.05;51.10
25232;BME280;13176;51.140;6.290;2022-09-01T03:26:11;101202.41;;;21.01;51.20
25232;BME280;13176;51.140;6.290;2022-09-01T03:28:41;101243.69;;;21.25;51.25
25232;BME280;13176;51.140;6.290;2022-09-01T03:31:07;101247.53;;;21.36;50.45
25232;BME280;13176;51.140;6.290;2022-09-01T03:33:34;101086.13;;;20.55;49.75
25232;BME280;13176;51.140;6.290;2022-09-01T03:36:03;101206.38;;;21.28;49.31
25232;BME280;13176;51.140;6.290;2022-09-01T03:38:40;101183.53;;;21.07;49.54
25232;BME280;13176;51.140;6.290;2022-09-01T03:41:09;101288.34;;;21.71;50.24
25232;BME280;13176;51.140;6.290;2022-09-01T03:43:39;101228.94;;;21.36;50.24
25232;BME280;13176;51.140;6.290;2022-09-01T03:46:14;101228.31;;;21.31;50.51
25232;BME280;13176;51.140;6.290;2022-09-01T03:48:51;101169.81;;;20.97;50.17
25232;BME280;13176;51.140;6.290;2022-09-01T03:51:21;101208.81;;;21.14;50.10
25232;BME280;13176;51.140;6.290;2022-09-01T03:53:50;101243.09;;;21.37;51.32
25232;BME280;13176;51.140;6.290;2022-09-01T03:56:24;101221.94;;;21.17;50.46
25232;BME280;13176;51.140;6.290;2022-09-01T03:58:53;101080.97;;;20.34;50.29
25232;BME280;13176;51.140;6.290;2022-09-01T04:01:23;101277.78;;;21.51;50.65
25232;BME280;13176;51.140;6.290;2022-09-01T04:03:50;101246.34;;;21.25;50.21
25232;BME280;13176;51.140;6.290;2022-09-01T04:06:18;101273.09;;;21.39;50.39
25232;BME280;13176;51.140;6.290;2022-09-01T04:08:45;101175.28;;;20.76;50.79
25232;BME280;13176;51.140;6.290;2022-09-01T04:11:16;101034.53;;;19.88;51.21
25232;BME280;13176;51.140;6.290;2022-09-01T04:13:45;101046.34;;;20.01;51.48
25232;BME280;13176;51.140;6.290;2022-09-01T04:16:20;101268.09;;;21.33;51.06
25232;BME280;13176;51.140;6.290;2022-09-01T04:19:06;101221.94;;;21.00;52.68
25232;BME280;13176;51.140;6.290;2022-09-01T04:21:45;101236.41;;;21.11;51.44
25232;BME280;13176;51.140;6.290;2022-09-01T04:24:12;101203.28;;;20.83;51.03
25232;BME280;13176;51.140;6.290;2022-09-01T04:26:41;101211.19;;;20.84;52.21
25232;BME280;13176;51.140;6.290;2022-09-01T04:29:07;101241.84;;;21.08;51.63
25232;BME280;13176;51.140;6.290;2022-09-01T04:31:36;101196.34;;;20.79;51.65
25232;BME280;13176;51.140;6.290;2022-09-01T04:34:07;101089.88;;;20.14;51.59
25232;BME280;13176;51.140;6.290;2022-09-01T04:36:40;101277.56;;;21.20;52.92
25232;BME280;13176;51.140;6.290;2022-09-01T04:39:08;101277.56;;;21.20;51.81
25232;BME280;13176;51.140;6.290;2022-09-01T04:41:43;101270.41;;;21.03;52.80
25232;BME280;13176;51.140;6.290;2022-09-01T04:44:12;101257.72;;;20.91;52.06
25232;BME280;13176;51.140;6.290;2022-09-01T04:46:41;101233.66;;;20.76;51.95
25232;BME280;13176;51.140;6.290;2022-09-01T04:49:11;101282.31;;;20.95;51.98
25232;BME280;13176;51.140;6.290;2022-09-01T04:51:43;101141.88;;;19.98;53.15
25232;BME280;13176;51.140;6.290;2022-09-01T04:54:19;101202.66;;;20.21;53.29
25232;BME280;13176;51.140;6.290;2022-09-01T04:56:48;101285.56;;;20.63;53.67
25232;BME280;13176;51.140;6.290;2022-09-01T04:59:18;101150.31;;;19.66;53.77
25232;BME280;13176;51.140;6.290;2022-09-01T05:01:47;101167.94;;;19.67;54.23
25232;BME280;13176;51.140;6.290;2022-09-01T05:04:19;101283.50;;;20.31;54.80
25232;BME280;13176;51.140;6.290;2022-09-01T05:06:50;101294.47;;;20.42;54.69
25232;BME280;13176;51.140;6.290;2022-09-01T05:09:21;101282.56;;;20.32;55.43
25232;BME280;13176;51.140;6.290;2022-09-01T05:11:47;101209.28;;;19.91;55.04
25232;BME280;13176;51.140;6.290;2022-09-01T05:14:16;101157.50;;;19.64;54.63
25232;BME280;13176;51.140;6.290;2022-09-01T05:16:47;101068.72;;;19.16;54.28
25232;BME280;13176;51.140;6.290;2022-09-01T05:19:16;101292.81;;;20.40;54.69
25232;BME280;13176;51.140;6.290;2022-09-01T05:21:47;101111.47;;;19.27;55.60
25232;BME280;13176;51.140;6.290;2022-09-01T05:24:19;101093.22;;;19.00;55.92
25232;BME280;13176;51.140;6.290;2022-09-01T05:26:47;101272.22;;;20.06;56.00
25232;BME280;13176;51.140;6.290;2022-09-01T05:29:16;101276.16;;;20.18;56.08
25232;BME280;13176;51.140;6.290;2022-09-01T05:31:46;101297.28;;;20.39;55.40
25232;BME280;13176;51.140;6.290;2022-09-01T05:34:16;101135.13;;;19.52;54.84
25232;BME280;13176;51.140;6.290;2022-09-01T05:36:47;101231.28;;;20.13;54.73
25232;BME280;13176;51.140;6.290;2022-09-01T05:39:15;101278.06;;;20.34;55.92
25232;BME280;13176;51.140;6.290;2022-09-01T05:41:42;101283.50;;;20.31;55.69
25232;BME280;13176;51.140;6.290;2022-09-01T05:44:09;101206.88;;;19.85;55.85
25232;BME280;13176;51.140;6.290;2022-09-01T05:46:37;101266.84;;;20.28;56.88
25232;BME280;13176;51.140;6.290;2022-09-01T05:49:06;101280.63;;;20.36;56.34
25232;BME280;13176;51.140;6.290;2022-09-01T05:51:34;101303.75;;;20.52;56.56
25232;BME280;13176;51.140;6.290;2022-09-01T05:54:14;101281.69;;;20.52;56.06
25232;BME280;13176;51.140;6.290;2022-09-01T05:56:42;101308.69;;;20.79;55.77
25232;BME280;13176;51.140;6.290;2022-09-01T05:59:12;101305.69;;;20.87;55.65
25232;BME280;13176;51.140;6.290;2022-09-01T06:01:49;101309.56;;;20.98;55.96
25232;BME280;13176;51.140;6.290;2022-09-01T06:04:18;101279.31;;;20.84;55.67
25232;BME280;13176;51.140;6.290;2022-09-01T06:06:47;101310.88;;;21.08;55.54
25232;BME280;13176;51.140;6.290;2022-09-01T06:09:35;101318.78;;;21.10;55.98
25232;BME280;13176;51.140;6.290;2022-09-01T06:12:03;101270.66;;;20.79;56.29
25232;BME280;13176;51.140;6.290;2022-09-01T06:14:30;101306.59;;;21.06;56.25
25232;BME280;13176;51.140;6.290;2022-09-01T06:16:57;101268.41;;;20.90;56.10
25232;BME280;13176;51.140;6.290;2022-09-01T06:19:24;101304.56;;;21.11;56.81
25232;BME280;13176;51.140;6.290;2022-09-01T06:21:50;101287.06;;;21.07;55.96
25232;BME280;13176;51.140;6.290;2022-09-01T06:24:17;101280.03;;;21.06;56.07
25232;BME280;13176;51.140;6.290;2022-09-01T06:26:43;101293.63;;;21.17;56.17
25232;BME280;13176;51.140;6.290;2022-09-01T06:29:11;101280.50;;;21.14;55.61
25232;BME280;13176;51.140;6.290;2022-09-01T06:31:40;101300.38;;;21.24;55.87
25232;BME280;13176;51.140;6.290;2022-09-01T06:34:09;101282.81;;;21.21;54.79
25232;BME280;13176;51.140;6.290;2022-09-01T06:36:38;101304.97;;;21.39;54.46
25232;BME280;13176;51.140;6.290;2022-09-01T06:39:07;101325.47;;;21.54;55.06
25232;BME280;13176;51.140;6.290;2022-09-01T06:41:34;101227.94;;;21.03;53.01
25232;BME280;13176;51.140;6.290;2022-09-01T06:44:04;101252.72;;;21.21;53.16
25232;BME280;13176;51.140;6.290;2022-09-01T06:46:30;101286.88;;;21.47;53.32
25232;BME280;13176;51.140;6.290;2022-09-01T06:48:57;101317.19;;;21.61;53.80
25232;BME280;13176;51.140;6.290;2022-09-01T06:51:25;101331.66;;;21.73;53.97
25232;BME280;13176;51.140;6.290;2022-09-01T06:53:55;101302.81;;;21.65;52.48
25232;BME280;13176;51.140;6.290;2022-09-01T06:56:23;101221.00;;;21.18;52.00
25232;BME280;13176;51.140;6.290;2022-09-01T06:58:54;101330.88;;;21.88;52.48
25232;BME280;13176;51.140;6.290;2022-09-01T07:01:22;101334.31;;;21.89;52.41
25232;BME280;13176;51.140;6.290;2022-09-01T07:03:51;101323.22;;;21.98;50.81
25232;BME280;13176;51.140;6.290;2022-09-01T07:06:20;101322.44;;;21.96;50.85
25232;BME280;13176;51.140;6.290;2022-09-01T07:09:10;101336.13;;;22.06;51.23
25232;BME280;13176;51.140;6.290;2022-09-01T07:11:45;101229.81;;;21.54;50.56
25232;BME280;13176;51.140;6.290;2022-09-01T07:14:32;101226.97;;;21.58;49.27
25232;BME280;13176;51.140;6.290;2022-09-01T07:16:58;101322.31;;;22.16;49.17
25232;BME280;13176;51.140;6.290;2022-09-01T07:19:45;101314.19;;;22.19;48.26
25232;BME280;13176;51.140;6.290;2022-09-01T07:22:13;101330.44;;;22.30;47.97
25232;BME280;13176;51.140;6.290;2022-09-01T07:25:00;101302.41;;;22.23;47.66
25232;BME280;13176;51.140;6.290;2022-09-01T07:27:43;101292.91;;;22.19;48.10
25232;BME280;13176;51.140;6.290;2022-09-01T07:30:18;101329.22;;;22.54;48.01
25232;BME280;13176;51.140;6.290;2022-09-01T07:32:49;101322.31;;;22.50;48.12
25232;BME280;13176;51.140;6.290;2022-09-01T07:35:20;101323.00;;;22.54;47.48
25232;BME280;13176;51.140;6.290;2022-09-01T07:37:47;101318.56;;;22.54;48.08
25232;BME280;13176;51.140;6.290;2022-09-01T07:40:39;101174.78;;;21.74;48.24
25232;BME280;13176;51.140;6.290;2022-09-01T07:43:25;101335.09;;;22.76;47.92
25232;BME280;13176;51.140;6.290;2022-09-01T07:46:02;101319.44;;;22.70;48.01
25232;BME280;13176;51.140;6.290;2022-09-01T07:48:54;101228.66;;;22.27;48.49
25232;BME280;13176;51.140;6.290;2022-09-01T07:51:41;101334.44;;;22.88;46.73
25232;BME280;13176;51.140;6.290;2022-09-01T07:54:09;101229.06;;;22.36;46.83
25232;BME280;13176;51.140;6.290;2022-09-01T07:56:39;101137.78;;;21.87;46.46
25232;BME280;13176;51.140;6.290;2022-09-01T07:59:06;101327.16;;;23.07;47.70
25232;BME280;13176;51.140;6.290;2022-09-01T08:01:37;101237.78;;;22.55;47.11
25232;BME280;13176;51.140;6.290;2022-09-01T08:04:04;101336.56;;;23.14;46.41
25232;BME280;13176;51.140;6.290;2022-09-01T08:06:33;101279.22;;;22.92;47.50
25232;BME280;13176;51.140;6.290;2022-09-01T08:09:04;101317.00;;;23.30;47.00
25232;BME280;13176;51.140;6.290;2022-09-01T08:11:37;101309.44;;;23.23;47.07
25232;BME280;13176;51.140;6.290;2022-09-01T08:14:24;101330.03;;;23.35;46.76
25232;BME280;13176;51.140;6.290;2022-09-01T08:16:51;101211.25;;;22.69;47.70
25232;BME280;13176;51.140;6.290;2022-09-01T08:19:18;101324.38;;;23.41;47.67
25232;BME280;13176;51.140;6.290;2022-09-01T08:21:44;101237.06;;;23.00;46.79
25232;BME280;13176;51.140;6.290;2022-09-01T08:24:11;101333.66;;;23.65;45.84
25232;BME280;13176;51.140;6.290;2022-09-01T08:26:37;101314.41;;;23.60;46.25
25232;BME280;13176;51.140;6.290;2022-09-01T08:29:04;101335.72;;;23.75;47.03
25232;BME280;13176;51.140;6.290;2022-09-01T08:31:31;101292.91;;;23.63;47.47
25232;BME280;13176;51.140;6.290;2022-09-01T08:34:00;101340.88;;;23.94;46.51
25232;BME280;13176;51.140;6.290;2022-09-01T08:36:30;101333.28;;;24.02;45.64
25232;BME280;13176;51.140;6.290;2022-09-01T08:38:57;101334.44;;;24.12;45.69
25232;BME280;13176;51.140;6.290;2022-09-01T08:44:27;101332.50;;;24.29;44.26
25232;BME280;13176;51.140;6.290;2022-09-01T08:47:08;101332.81;;;24.38;43.98
25232;BME280;13176;51.140;6.290;2022-09-01T08:49:40;101304.00;;;24.43;44.14
25232;BME280;13176;51.140;6.290;2022-09-01T08:52:29;101312.19;;;24.56;43.82
25232;BME280;13176;51.140;6.290;2022-09-01T08:55:08;101313.69;;;24.60;43.88
25232;BME280;13176;51.140;6.290;2022-09-01T08:57:40;101306.38;;;24.63;44.58
25232;BME280;13176;51.140;6.290;2022-09-01T09:00:10;101266.44;;;24.46;43.41
25232;BME280;13176;51.140;6.290;2022-09-01T09:02:55;101301.00;;;24.77;43.33
25232;BME280;13176;51.140;6.290;2022-09-01T09:05:32;101326.78;;;25.06;43.01
25232;BME280;13176;51.140;6.290;2022-09-01T09:11:05;101306.53;;;25.16;42.65
25232;BME280;13176;51.140;6.290;2022-09-01T09:24:04;101316.09;;;25.87;39.28
25232;BME280;13176;51.140;6.290;2022-09-01T09:26:32;101294.16;;;25.82;38.75
25232;BME280;13176;51.140;6.290;2022-09-01T09:29:14;101291.59;;;25.93;38.68
25232;BME280;13176;51.140;6.290;2022-09-01T09:31:40;101311.25;;;26.18;37.69
25232;BME280;13176;51.140;6.290;2022-09-01T09:34:42;101305.91;;;26.31;38.19
25232;BME280;13176;51.140;6.290;2022-09-01T09:42:38;101291.41;;;26.72;37.99
25232;BME280;13176;51.140;6.290;2022-09-01T09:45:26;101277.88;;;26.73;36.99
25232;BME280;13176;51.140;6.290;2022-09-01T09:47:54;101293.41;;;26.93;36.78
25232;BME280;13176;51.140;6.290;2022-09-01T09:50:28;101289.66;;;27.08;36.65
25232;BME280;13176;51.140;6.290;2022-09-01T09:58:27;101289.56;;;27.33;35.20
25232;BME280;13176;51.140;6.290;2022-09-01T10:00:59;101284.94;;;27.35;34.91
25232;BME280;13176;51.140;6.290;2022-09-01T10:03:41;101273.03;;;27.39;35.04
25232;BME280;13176;51.140;6.290;2022-09-01T10:06:27;101278.13;;;27.55;34.35
25232;BME280;13176;51.140;6.290;2022-09-01T10:08:56;101269.91;;;27.45;34.83
25232;BME280;13176;51.140;6.290;2022-09-01T10:11:42;101271.22;;;27.40;34.02
25232;BME280;13176;51.140;6.290;2022-09-01T10:17:09;101250.50;;;27.18;34.14
25232;BME280;13176;51.140;6.290;2022-09-01T10:19:59;101277.34;;;27.42;34.03
25232;BME280;13176;51.140;6.290;2022-09-01T10:22:37;101199.63;;;26.93;33.73
25232;BME280;13176;51.140;6.290;2022-09-01T10:25:06;101172.81;;;26.81;33.57
25232;BME280;13176;51.140;6.290;2022-09-01T10:27:39;101262.88;;;27.32;32.92
25232;BME280;13176;51.140;6.290;2022-09-01T10:30:12;101230.75;;;27.19;32.37
25232;BME280;13176;51.140;6.290;2022-09-01T10:32:55;101266.19;;;27.35;32.72
25232;BME280;13176;51.140;6.290;2022-09-01T10:35:35;101231.94;;;27.15;32.45
25232;BME280;13176;51.140;6.290;2022-09-01T10:38:08;101217.56;;;27.16;31.93
25232;BME280;13176;51.140;6.290;2022-09-01T10:40:54;101258.25;;;27.57;31.94
25232;BME280;13176;51.140;6.290;2022-09-01T10:43:47;101245.91;;;27.67;32.33
25232;BME280;13176;51.140;6.290;2022-09-01T10:48:54;101249.84;;;28.19;31.58
25232;BME280;13176;51.140;6.290;2022-09-01T10:54:03;101227.53;;;28.41;29.98
25232;BME280;13176;51.140;6.290;2022-09-01T11:02:09;101232.34;;;28.81;29.62
25232;BME280;13176;51.140;6.290;2022-09-01T11:10:30;101225.22;;;29.13;29.97
25232;BME280;13176;51.140;6.290;2022-09-01T11:15:53;101194.47;;;29.37;28.27
25232;BME280;13176;51.140;6.290;2022-09-01T11:18:28;101228.41;;;29.60;28.32
25232;BME280;13176;51.140;6.290;2022-09-01T11:21:34;101224.47;;;29.64;27.40
25232;BME280;13176;51.140;6.290;2022-09-01T11:30:29;101214.97;;;29.81;26.29
25232;BME280;13176;51.140;6.290;2022-09-01T11:38:47;101206.22;;;30.29;26.05
25232;BME280;13176;51.140;6.290;2022-09-01T11:42:05;101200.84;;;30.29;26.30
25232;BME280;13176;51.140;6.290;2022-09-01T11:44:16;101204.78;;;30.25;25.96
25232;BME280;13176;51.140;6.290;2022-09-01T11:46:46;101202.56;;;30.30;25.62
25232;BME280;13176;51.140;6.290;2022-09-01T11:49:32;101200.34;;;30.44;25.96
25232;BME280;13176;51.140;6.290;2022-09-01T11:52:00;101178.03;;;30.33;26.46
25232;BME280;13176;51.140;6.290;2022-09-01T11:54:28;101181.06;;;30.39;26.04
25232;BME280;13176;51.140;6.290;2022-09-01T11:57:16;101197.00;;;30.52;26.08
25232;BME280;13176;51.140;6.290;2022-09-01T11:59:42;101125.63;;;30.17;25.85
25232;BME280;13176;51.140;6.290;2022-09-01T12:02:16;101184.00;;;30.57;25.34
25232;BME280;13176;51.140;6.290;2022-09-01T12:04:43;101176.91;;;30.56;25.80
25232;BME280;13176;51.140;6.290;2022-09-01T12:07:24;101169.56;;;30.67;25.17
25232;BME280;13176;51.140;6.290;2022-09-01T12:09:51;101179.06;;;30.41;23.69
25232;BME280;13176;51.140;6.290;2022-09-01T12:12:44;101168.88;;;30.45;25.10
25232;BME280;13176;51.140;6.290;2022-09-01T12:15:25;101181.47;;;30.65;25.73
25232;BME280;13176;51.140;6.290;2022-09-01T12:17:52;101161.75;;;30.64;24.89
25232;BME280;13176;51.140;6.290;2022-09-01T12:20:28;101168.75;;;30.86;25.07
25232;BME280;13176;51.140;6.290;2022-09-01T12:22:57;101173.00;;;30.88;24.93
25232;BME280;13176;51.140;6.290;2022-09-01T12:25:34;101112.47;;;30.53;25.02
25232;BME280;13176;51.140;6.290;2022-09-01T12:28:02;101177.69;;;30.96;24.44
25232;BME280;13176;51.140;6.290;2022-09-01T12:30:33;101144.69;;;31.13;24.25
25232;BME280;13176;51.140;6.290;2022-09-01T12:33:06;101156.63;;;31.29;24.61
25232;BME280;13176;51.140;6.290;2022-09-01T12:35:50;101145.84;;;31.39;24.46
25232;BME280;13176;51.140;6.290;2022-09-01T12:38:23;101146.72;;;31.30;24.05
25232;BME280;13176;51.140;6.290;2022-09-01T12:40:55;101155.19;;;31.35;24.18
25232;BME280;13176;51.140;6.290;2022-09-01T12:43:38;101152.09;;;31.30;24.74
25232;BME280;13176;51.140;6.290;2022-09-01T12:46:06;101155.53;;;31.32;24.29
25232;BME280;13176;51.140;6.290;2022-09-01T12:48:38;101134.78;;;31.23;23.61
25232;BME280;13176;51.140;6.290;2022-09-01T12:51:21;101108.78;;;31.22;24.47
25232;BME280;13176;51.140;6.290;2022-09-01T12:53:57;101122.69;;;31.46;23.64
25232;BME280;13176;51.140;6.290;2022-09-01T12:56:29;101063.59;;;31.24;24.00
25232;BME280;13176;51.140;6.290;2022-09-01T12:59:25;101147.25;;;31.80;23.95
25232;BME280;13176;51.140;6.290;2022-09-01T13:02:30;101151.81;;;31.70;23.30
25232;BME280;13176;51.140;6.290;2022-09-01T13:05:19;101141.31;;;31.67;24.01
25232;BME280;13176;51.140;6.290;2022-09-01T13:07:46;101119.97;;;31.46;24.18
25232;BME280;13176;51.140;6.290;2022-09-01T13:10:12;101136.16;;;31.55;23.61
25232;BME280;13176;51.140;6.290;2022-09-01T13:12:41;101129.38;;;31.60;23.81
25232;BME280;13176;51.140;6.290;2022-09-01T13:15:08;101061.16;;;31.02;23.77
25232;BME280;13176;51.140;6.290;2022-09-01T13:17:35;101111.41;;;31.03;23.69
25232;BME280;13176;51.140;6.290;2022-09-01T13:20:07;101112.88;;;31.07;24.56
25232;BME280;13176;51.140;6.290;2022-09-01T13:22:34;101025.94;;;30.65;24.24
25232;BME280;13176;51.140;6.290;2022-09-01T13:25:01;101126.50;;;31.34;24.82
25232;BME280;13176;51.140;6.290;2022-09-01T13:27:27;101029.34;;;30.58;23.72
25232;BME280;13176;51.140;6.290;2022-09-01T13:29:54;101121.41;;;31.12;24.07
25232;BME280;13176;51.140;6.290;2022-09-01T13:32:21;101063.97;;;30.72;23.65
25232;BME280;13176;51.140;6.290;2022-09-01T13:34:51;101094.94;;;30.87;24.71
25232;BME280;13176;51.140;6.290;2022-09-01T13:37:19;101100.97;;;31.09;25.28
25232;BME280;13176;51.140;6.290;2022-09-01T13:39:46;101102.59;;;31.01;24.23
25232;BME280;13176;51.140;6.290;2022-09-01T13:42:13;101102.66;;;31.20;25.09
25232;BME280;13176;51.140;6.290;2022-09-01T13:44:41;101107.59;;;31.52;25.60
25232;BME280;13176;51.140;6.290;2022-09-01T13:47:09;101088.41;;;31.84;24.90
25232;BME280;13176;51.140;6.290;2022-09-01T13:49:57;101091.75;;;31.95;23.97
25232;BME280;13176;51.140;6.290;2022-09-01T13:52:34;101103.38;;;32.15;23.86
25232;BME280;13176;51.140;6.290;2022-09-01T13:55:00;101107.16;;;32.31;23.48
25232;BME280;13176;51.140;6.290;2022-09-01T13:57:27;101054.81;;;31.86;23.33
25232;BME280;13176;51.140;6.290;2022-09-01T14:00:02;101093.72;;;32.12;23.47
25232;BME280;13176;51.140;6.290;2022-09-01T14:02:29;101090.22;;;32.29;23.53
25232;BME280;13176;51.140;6.290;2022-09-01T14:04:55;101105.56;;;32.38;23.42
25232;BME280;13176;51.140;6.290;2022-09-01T14:07:22;101062.16;;;32.03;23.24
25232;BME280;13176;51.140;6.290;2022-09-01T14:09:48;101077.22;;;32.06;23.76
25232;BME280;13176;51.140;6.290;2022-09-01T14:12:15;101081.97;;;31.94;23.88
25232;BME280;13176;51.140;6.290;2022-09-01T14:14:41;101080.66;;;31.89;23.90
25232;BME280;13176;51.140;6.290;2022-09-01T14:17:28;101052.78;;;31.61;23.89
25232;BME280;13176;51.140;6.290;2022-09-01T14:19:54;101039.16;;;31.44;24.29
25232;BME280;13176;51.140;6.290;2022-09-01T14:22:22;101070.81;;;31.52;25.01